sensor_id;sensor_type;location;lat;lon;timestamp;P1;durP1;ratioP1;P2;durP2;ratioP2
73331;SDS011;61560;33.718;73.040;2023-05-07T00:02:12;5.43;;;2.28;;
73331;SDS011;61560;33.718;73.040;2023-05-07T00:04:38;4.78;;;1.90;;
73331;SDS011;61560;33.718;73.040;2023-05-07T00:07:05;8.02;;;2.40;;
73331;SDS011;61560;33.718;73.040;2023-05-07T00:09:32;4.13;;;2.10;;
73331;SDS011;61560;33.718;73.040;2023-05-07T00:11:58;4.55;;;2.00;;
73331;SDS011;61560;33.718;73.040;2023-05-07T00:14:25;6.65;;;2.05;;
73331;SDS011;61560;33.718;73.040;2023-05-07T00:16:52;7.47;;;1.90;;
73331;SDS011;61560;33.718;73.040;2023-05-07T00:19:19;8.20;;;1.95;;
73331;SDS011;61560;33.718;73.040;2023-05-07T00:21:45;4.00;;;1.98;;
73331;SDS011;61560;33.718;73.040;2023-05-07T00:24:12;3.15;;;1.80;;
73331;SDS011;61560;33.718;73.040;2023-05-07T00:26:40;4.60;;;2.08;;
73331;SDS011;61560;33.718;73.040;2023-05-07T00:29:07;2.20;;;1.60;;
73331;SDS011;61560;33.718;73.040;2023-05-07T00:31:34;3.13;;;1.90;;
73331;SDS011;61560;33.718;73.040;2023-05-07T00:34:01;6.32;;;2.03;;
73331;SDS011;61560;33.718;73.040;2023-05-07T00:36:27;6.07;;;2.13;;
73331;SDS011;61560;33.718;73.040;2023-05-07T00:38:56;3.55;;;2.08;;
73331;SDS011;61560;33.718;73.040;2023-05-07T00:41:26;4.60;;;1.98;;
73331;SDS011;61560;33.718;73.040;2023-05-07T00:43:52;3.50;;;1.88;;
73331;SDS011;61560;33.718;73.040;2023-05-07T00:46:20;5.07;;;2.08;;
73331;SDS011;61560;33.718;73.040;2023-05-07T00:48:50;6.97;;;2.08;;
73331;SDS011;61560;33.718;73.040;2023-05-07T00:51:17;19.13;;;7.65;;
73331;SDS011;61560;33.718;73.040;2023-05-07T00:53:44;9.68;;;5.57;;
73331;SDS011;61560;33.718;73.040;2023-05-07T00:56:12;9.68;;;4.30;;
73331;SDS011;61560;33.718;73.040;2023-05-07T00:58:39;6.07;;;2.80;;
73331;SDS011;61560;33.718;73.040;2023-05-07T01:04:03;6.35;;;2.88;;
73331;SDS011;61560;33.718;73.040;2023-05-07T01:06:29;4.93;;;2.90;;
73331;SDS011;61560;33.718;73.040;2023-05-07T01:09:00;7.68;;;2.67;;
73331;SDS011;61560;33.718;73.040;2023-05-07T01:11:27;4.43;;;2.47;;
73331;SDS011;61560;33.718;73.040;2023-05-07T01:13:55;4.65;;;2.85;;
73331;SDS011;61560;33.718;73.040;2023-05-07T01:16:23;5.82;;;2.90;;
73331;SDS011;61560;33.718;73.040;2023-05-07T01:18:50;6.68;;;2.40;;
73331;SDS011;61560;33.718;73.040;2023-05-07T01:21:16;6.28;;;2.75;;
73331;SDS011;61560;33.718;73.040;2023-05-07T01:23:44;6.68;;;2.92;;
73331;SDS011;61560;33.718;73.040;2023-05-07T01:26:12;4.93;;;3.00;;
73331;SDS011;61560;33.718;73.040;2023-05-07T01:28:41;14.77;;;3.15;;
73331;SDS011;61560;33.718;73.040;2023-05-07T01:31:07;5.70;;;2.70;;
73331;SDS011;61560;33.718;73.040;2023-05-07T01:33:37;9.20;;;3.72;;
73331;SDS011;61560;33.718;73.040;2023-05-07T01:36:07;7.32;;;3.10;;
73331;SDS011;61560;33.718;73.040;2023-05-07T01:38:37;6.47;;;3.60;;
73331;SDS011;61560;33.718;73.040;2023-05-07T01:41:05;7.05;;;3.70;;
73331;SDS011;61560;33.718;73.040;2023-05-07T01:43:33;7.43;;;2.97;;
73331;SDS011;61560;33.718;73.040;2023-05-07T01:46:00;7.93;;;3.80;;
73331;SDS011;61560;33.718;73.040;2023-05-07T01:48:28;9.13;;;3.72;;
73331;SDS011;61560;33.718;73.040;2023-05-07T01:50:55;9.63;;;3.67;;
73331;SDS011;61560;33.718;73.040;2023-05-07T01:53:22;7.60;;;3.55;;
73331;SDS011;61560;33.718;73.040;2023-05-07T01:55:48;9.43;;;3.97;;
73331;SDS011;61560;33.718;73.040;2023-05-07T01:58:16;9.73;;;4.13;;
73331;SDS011;61560;33.718;73.040;2023-05-07T02:00:42;11.20;;;4.70;;
73331;SDS011;61560;33.718;73.040;2023-05-07T02:03:10;9.52;;;4.45;;
73331;SDS011;61560;33.718;73.040;2023-05-07T02:05:48;11.95;;;4.90;;
73331;SDS011;61560;33.718;73.040;2023-05-07T02:08:25;6.68;;;4.10;;
73331;SDS011;61560;33.718;73.040;2023-05-07T02:10:53;6.28;;;3.40;;
73331;SDS011;61560;33.718;73.040;2023-05-07T02:13:20;11.57;;;4.60;;
73331;SDS011;61560;33.718;73.040;2023-05-07T02:15:48;9.38;;;4.45;;
73331;SDS011;61560;33.718;73.040;2023-05-07T02:18:16;8.93;;;5.07;;
73331;SDS011;61560;33.718;73.040;2023-05-07T02:20:43;10.85;;;4.95;;
73331;SDS011;61560;33.718;73.040;2023-05-07T02:23:10;9.38;;;4.32;;
73331;SDS011;61560;33.718;73.040;2023-05-07T02:25:36;7.93;;;4.88;;
73331;SDS011;61560;33.718;73.040;2023-05-07T02:28:03;10.25;;;5.10;;
73331;SDS011;61560;33.718;73.040;2023-05-07T02:30:41;6.50;;;4.45;;
73331;SDS011;61560;33.718;73.040;2023-05-07T02:33:08;8.98;;;4.70;;
73331;SDS011;61560;33.718;73.040;2023-05-07T02:35:35;9.23;;;4.80;;
73331;SDS011;61560;33.718;73.040;2023-05-07T02:38:05;10.20;;;5.15;;
73331;SDS011;61560;33.718;73.040;2023-05-07T02:40:32;12.40;;;4.70;;
73331;SDS011;61560;33.718;73.040;2023-05-07T02:42:59;12.57;;;4.55;;
73331;SDS011;61560;33.718;73.040;2023-05-07T02:45:25;5.88;;;3.67;;
73331;SDS011;61560;33.718;73.040;2023-05-07T02:47:54;8.90;;;4.18;;
73331;SDS011;61560;33.718;73.040;2023-05-07T02:50:20;11.13;;;3.95;;
73331;SDS011;61560;33.718;73.040;2023-05-07T02:52:47;9.70;;;4.05;;
73331;SDS011;61560;33.718;73.040;2023-05-07T02:55:13;9.05;;;3.67;;
73331;SDS011;61560;33.718;73.040;2023-05-07T02:57:40;11.70;;;4.53;;
73331;SDS011;61560;33.718;73.040;2023-05-07T03:00:10;6.55;;;3.67;;
73331;SDS011;61560;33.718;73.040;2023-05-07T03:02:51;11.07;;;3.90;;
73331;SDS011;61560;33.718;73.040;2023-05-07T03:05:19;4.68;;;3.63;;
73331;SDS011;61560;33.718;73.040;2023-05-07T03:07:45;8.60;;;4.20;;
73331;SDS011;61560;33.718;73.040;2023-05-07T03:10:14;7.13;;;3.88;;
73331;SDS011;61560;33.718;73.040;2023-05-07T03:12:41;6.45;;;3.95;;
73331;SDS011;61560;33.718;73.040;2023-05-07T03:15:10;5.38;;;3.63;;
73331;SDS011;61560;33.718;73.040;2023-05-07T03:17:38;8.70;;;3.72;;
73331;SDS011;61560;33.718;73.040;2023-05-07T03:20:06;8.95;;;4.03;;
73331;SDS011;61560;33.718;73.040;2023-05-07T03:22:33;10.63;;;3.60;;
73331;SDS011;61560;33.718;73.040;2023-05-07T03:25:01;7.03;;;4.07;;
73331;SDS011;61560;33.718;73.040;2023-05-07T03:27:27;9.43;;;3.95;;
73331;SDS011;61560;33.718;73.040;2023-05-07T03:29:55;8.70;;;4.28;;
73331;SDS011;61560;33.718;73.040;2023-05-07T03:32:22;8.55;;;3.97;;
73331;SDS011;61560;33.718;73.040;2023-05-07T03:34:48;8.18;;;3.75;;
73331;SDS011;61560;33.718;73.040;2023-05-07T03:37:15;7.72;;;4.00;;
73331;SDS011;61560;33.718;73.040;2023-05-07T03:39:42;6.45;;;4.20;;
73331;SDS011;61560;33.718;73.040;2023-05-07T03:42:09;9.48;;;3.88;;
73331;SDS011;61560;33.718;73.040;2023-05-07T03:44:37;9.27;;;4.40;;
73331;SDS011;61560;33.718;73.040;2023-05-07T03:47:20;7.93;;;4.30;;
73331;SDS011;61560;33.718;73.040;2023-05-07T03:49:54;5.88;;;4.20;;
73331;SDS011;61560;33.718;73.040;2023-05-07T03:52:23;8.13;;;4.22;;
73331;SDS011;61560;33.718;73.040;2023-05-07T03:54:53;8.05;;;4.50;;
73331;SDS011;61560;33.718;73.040;2023-05-07T03:57:20;9.30;;;4.20;;
73331;SDS011;61560;33.718;73.040;2023-05-07T03:59:47;8.80;;;4.60;;
73331;SDS011;61560;33.718;73.040;2023-05-07T04:02:14;7.93;;;4.40;;
73331;SDS011;61560;33.718;73.040;2023-05-07T04:04:41;10.48;;;4.97;;
73331;SDS011;61560;33.718;73.040;2023-05-07T04:07:08;7.65;;;4.32;;
73331;SDS011;61560;33.718;73.040;2023-05-07T04:09:41;7.47;;;3.95;;
73331;SDS011;61560;33.718;73.040;2023-05-07T04:12:08;9.45;;;4.03;;
73331;SDS011;61560;33.718;73.040;2023-05-07T04:14:35;8.15;;;4.07;;
73331;SDS011;61560;33.718;73.040;2023-05-07T04:17:01;8.23;;;4.55;;
73331;SDS011;61560;33.718;73.040;2023-05-07T04:19:29;6.43;;;4.10;;
73331;SDS011;61560;33.718;73.040;2023-05-07T04:21:56;6.82;;;3.83;;
73331;SDS011;61560;33.718;73.040;2023-05-07T04:24:23;7.25;;;4.50;;
73331;SDS011;61560;33.718;73.040;2023-05-07T04:26:49;7.93;;;4.05;;
73331;SDS011;61560;33.718;73.040;2023-05-07T04:29:17;7.55;;;4.20;;
73331;SDS011;61560;33.718;73.040;2023-05-07T04:31:44;9.98;;;4.93;;
73331;SDS011;61560;33.718;73.040;2023-05-07T04:34:11;8.68;;;4.80;;
73331;SDS011;61560;33.718;73.040;2023-05-07T04:36:39;6.80;;;3.90;;
73331;SDS011;61560;33.718;73.040;2023-05-07T04:41:38;7.57;;;4.47;;
73331;SDS011;61560;33.718;73.040;2023-05-07T04:44:06;9.98;;;4.55;;
73331;SDS011;61560;33.718;73.040;2023-05-07T04:46:34;10.60;;;5.13;;
73331;SDS011;61560;33.718;73.040;2023-05-07T04:49:01;7.70;;;4.90;;
73331;SDS011;61560;33.718;73.040;2023-05-07T04:51:30;10.82;;;5.20;;
73331;SDS011;61560;33.718;73.040;2023-05-07T04:53:58;14.30;;;5.43;;
73331;SDS011;61560;33.718;73.040;2023-05-07T04:56:30;16.77;;;5.03;;
73331;SDS011;61560;33.718;73.040;2023-05-07T04:58:57;9.88;;;4.70;;
73331;SDS011;61560;33.718;73.040;2023-05-07T05:01:24;9.65;;;4.60;;
73331;SDS011;61560;33.718;73.040;2023-05-07T05:03:51;9.93;;;4.40;;
73331;SDS011;61560;33.718;73.040;2023-05-07T05:06:18;13.57;;;5.43;;
73331;SDS011;61560;33.718;73.040;2023-05-07T05:08:45;10.63;;;5.25;;
73331;SDS011;61560;33.718;73.040;2023-05-07T05:11:12;8.48;;;5.15;;
73331;SDS011;61560;33.718;73.040;2023-05-07T05:13:38;8.40;;;5.28;;
73331;SDS011;61560;33.718;73.040;2023-05-07T05:16:11;10.15;;;4.72;;
73331;SDS011;61560;33.718;73.040;2023-05-07T05:18:39;13.43;;;4.90;;
73331;SDS011;61560;33.718;73.040;2023-05-07T05:21:08;10.15;;;4.97;;
73331;SDS011;61560;33.718;73.040;2023-05-07T05:23:34;7.35;;;4.10;;
73331;SDS011;61560;33.718;73.040;2023-05-07T05:26:01;10.07;;;4.88;;
73331;SDS011;61560;33.718;73.040;2023-05-07T05:28:31;10.18;;;4.45;;
73331;SDS011;61560;33.718;73.040;2023-05-07T05:30:58;9.02;;;4.80;;
73331;SDS011;61560;33.718;73.040;2023-05-07T05:33:28;13.23;;;5.10;;
73331;SDS011;61560;33.718;73.040;2023-05-07T05:36:00;11.43;;;5.72;;
73331;SDS011;61560;33.718;73.040;2023-05-07T05:38:27;12.13;;;5.13;;
73331;SDS011;61560;33.718;73.040;2023-05-07T05:40:54;7.93;;;4.20;;
73331;SDS011;61560;33.718;73.040;2023-05-07T05:43:21;9.77;;;4.50;;
73331;SDS011;61560;33.718;73.040;2023-05-07T05:45:47;12.82;;;4.43;;
73331;SDS011;61560;33.718;73.040;2023-05-07T05:48:14;11.40;;;5.47;;
73331;SDS011;61560;33.718;73.040;2023-05-07T05:50:41;10.55;;;4.95;;
73331;SDS011;61560;33.718;73.040;2023-05-07T05:53:09;6.88;;;4.72;;
73331;SDS011;61560;33.718;73.040;2023-05-07T05:55:36;12.43;;;5.15;;
73331;SDS011;61560;33.718;73.040;2023-05-07T05:58:03;8.73;;;4.80;;
73331;SDS011;61560;33.718;73.040;2023-05-07T06:00:34;11.40;;;4.80;;
73331;SDS011;61560;33.718;73.040;2023-05-07T06:03:03;8.82;;;4.80;;
73331;SDS011;61560;33.718;73.040;2023-05-07T06:05:30;8.45;;;4.07;;
73331;SDS011;61560;33.718;73.040;2023-05-07T06:07:57;10.07;;;4.57;;
73331;SDS011;61560;33.718;73.040;2023-05-07T06:10:26;11.13;;;4.40;;
73331;SDS011;61560;33.718;73.040;2023-05-07T06:13:00;9.05;;;4.15;;
73331;SDS011;61560;33.718;73.040;2023-05-07T06:15:27;5.72;;;4.10;;
73331;SDS011;61560;33.718;73.040;2023-05-07T06:17:54;11.85;;;3.85;;
73331;SDS011;61560;33.718;73.040;2023-05-07T06:20:24;7.05;;;4.18;;
73331;SDS011;61560;33.718;73.040;2023-05-07T06:22:51;6.60;;;4.30;;
73331;SDS011;61560;33.718;73.040;2023-05-07T06:25:19;6.70;;;3.90;;
73331;SDS011;61560;33.718;73.040;2023-05-07T06:27:46;6.95;;;3.67;;
73331;SDS011;61560;33.718;73.040;2023-05-07T06:30:13;11.55;;;3.90;;
73331;SDS011;61560;33.718;73.040;2023-05-07T06:32:40;11.23;;;4.00;;
73331;SDS011;61560;33.718;73.040;2023-05-07T06:35:08;9.77;;;3.90;;
73331;SDS011;61560;33.718;73.040;2023-05-07T06:37:36;6.35;;;3.22;;
73331;SDS011;61560;33.718;73.040;2023-05-07T06:40:06;8.45;;;3.42;;
73331;SDS011;61560;33.718;73.040;2023-05-07T06:42:35;7.88;;;3.45;;
73331;SDS011;61560;33.718;73.040;2023-05-07T06:45:21;8.13;;;3.40;;
73331;SDS011;61560;33.718;73.040;2023-05-07T06:47:48;7.03;;;2.83;;
73331;SDS011;61560;33.718;73.040;2023-05-07T06:50:14;9.32;;;2.88;;
73331;SDS011;61560;33.718;73.040;2023-05-07T06:52:46;6.55;;;3.45;;
73331;SDS011;61560;33.718;73.040;2023-05-07T06:55:12;10.25;;;3.20;;
73331;SDS011;61560;33.718;73.040;2023-05-07T06:57:40;11.27;;;2.92;;
73331;SDS011;61560;33.718;73.040;2023-05-07T07:00:07;12.27;;;3.33;;
73331;SDS011;61560;33.718;73.040;2023-05-07T07:02:44;7.35;;;3.28;;
73331;SDS011;61560;33.718;73.040;2023-05-07T07:05:13;9.90;;;3.10;;
73331;SDS011;61560;33.718;73.040;2023-05-07T07:07:39;8.48;;;2.70;;
73331;SDS011;61560;33.718;73.040;2023-05-07T07:10:06;5.18;;;2.50;;
73331;SDS011;61560;33.718;73.040;2023-05-07T07:12:34;3.40;;;2.40;;
73331;SDS011;61560;33.718;73.040;2023-05-07T07:15:00;4.78;;;2.45;;
73331;SDS011;61560;33.718;73.040;2023-05-07T07:17:28;3.28;;;2.28;;
73331;SDS011;61560;33.718;73.040;2023-05-07T07:19:55;5.32;;;2.63;;
73331;SDS011;61560;33.718;73.040;2023-05-07T07:22:22;7.35;;;2.60;;
73331;SDS011;61560;33.718;73.040;2023-05-07T07:24:49;7.00;;;2.53;;
73331;SDS011;61560;33.718;73.040;2023-05-07T07:27:17;5.97;;;2.47;;
73331;SDS011;61560;33.718;73.040;2023-05-07T07:29:43;6.28;;;2.45;;
73331;SDS011;61560;33.718;73.040;2023-05-07T07:32:11;5.47;;;2.63;;
73331;SDS011;61560;33.718;73.040;2023-05-07T07:34:37;5.18;;;2.50;;
73331;SDS011;61560;33.718;73.040;2023-05-07T07:37:06;5.80;;;2.60;;
73331;SDS011;61560;33.718;73.040;2023-05-07T07:39:34;9.77;;;2.67;;
73331;SDS011;61560;33.718;73.040;2023-05-07T07:42:06;6.15;;;2.92;;
73331;SDS011;61560;33.718;73.040;2023-05-07T07:44:33;4.75;;;2.67;;
73331;SDS011;61560;33.718;73.040;2023-05-07T07:47:05;6.68;;;2.80;;
73331;SDS011;61560;33.718;73.040;2023-05-07T07:49:32;9.38;;;2.30;;
73331;SDS011;61560;33.718;73.040;2023-05-07T07:52:02;5.05;;;2.10;;
73331;SDS011;61560;33.718;73.040;2023-05-07T07:54:31;4.10;;;1.98;;
73331;SDS011;61560;33.718;73.040;2023-05-07T07:56:58;3.03;;;2.03;;
73331;SDS011;61560;33.718;73.040;2023-05-07T07:59:26;8.20;;;2.28;;
73331;SDS011;61560;33.718;73.040;2023-05-07T08:01:54;3.95;;;2.22;;
73331;SDS011;61560;33.718;73.040;2023-05-07T08:04:24;4.85;;;2.40;;
73331;SDS011;61560;33.718;73.040;2023-05-07T08:06:53;7.72;;;3.00;;
73331;SDS011;61560;33.718;73.040;2023-05-07T08:09:26;7.55;;;2.40;;
73331;SDS011;61560;33.718;73.040;2023-05-07T08:11:56;7.35;;;2.47;;
73331;SDS011;61560;33.718;73.040;2023-05-07T08:14:24;5.50;;;2.35;;
73331;SDS011;61560;33.718;73.040;2023-05-07T08:16:50;5.05;;;2.40;;
73331;SDS011;61560;33.718;73.040;2023-05-07T08:19:18;5.78;;;2.20;;
73331;SDS011;61560;33.718;73.040;2023-05-07T08:21:45;6.03;;;2.45;;
73331;SDS011;61560;33.718;73.040;2023-05-07T08:24:15;6.38;;;2.35;;
73331;SDS011;61560;33.718;73.040;2023-05-07T08:26:42;5.53;;;2.30;;
73331;SDS011;61560;33.718;73.040;2023-05-07T08:29:10;5.78;;;2.47;;
73331;SDS011;61560;33.718;73.040;2023-05-07T08:31:36;5.03;;;2.80;;
73331;SDS011;61560;33.718;73.040;2023-05-07T08:34:05;4.60;;;2.22;;
73331;SDS011;61560;33.718;73.040;2023-05-07T08:36:35;3.45;;;2.00;;
73331;SDS011;61560;33.718;73.040;2023-05-07T08:39:03;5.60;;;2.28;;
73331;SDS011;61560;33.718;73.040;2023-05-07T08:41:30;4.63;;;2.20;;
73331;SDS011;61560;33.718;73.040;2023-05-07T08:43:57;6.10;;;2.22;;
73331;SDS011;61560;33.718;73.040;2023-05-07T08:46:31;7.55;;;2.40;;
73331;SDS011;61560;33.718;73.040;2023-05-07T08:48:58;5.28;;;2.10;;
73331;SDS011;61560;33.718;73.040;2023-05-07T08:51:26;6.13;;;2.53;;
73331;SDS011;61560;33.718;73.040;2023-05-07T08:53:53;4.93;;;2.58;;
73331;SDS011;61560;33.718;73.040;2023-05-07T08:56:24;7.07;;;2.88;;
73331;SDS011;61560;33.718;73.040;2023-05-07T08:58:52;10.73;;;2.67;;
73331;SDS011;61560;33.718;73.040;2023-05-07T09:01:22;6.70;;;2.22;;
73331;SDS011;61560;33.718;73.040;2023-05-07T09:03:51;5.55;;;2.08;;
73331;SDS011;61560;33.718;73.040;2023-05-07T09:06:19;3.95;;;2.25;;
73331;SDS011;61560;33.718;73.040;2023-05-07T09:08:53;6.18;;;2.30;;
73331;SDS011;61560;33.718;73.040;2023-05-07T09:11:24;5.32;;;2.50;;
73331;SDS011;61560;33.718;73.040;2023-05-07T09:13:56;7.57;;;2.70;;
73331;SDS011;61560;33.718;73.040;2023-05-07T09:16:28;5.10;;;2.38;;
73331;SDS011;61560;33.718;73.040;2023-05-07T09:18:58;4.07;;;2.17;;
73331;SDS011;61560;33.718;73.040;2023-05-07T09:21:29;7.93;;;2.45;;
73331;SDS011;61560;33.718;73.040;2023-05-07T09:23:58;4.45;;;2.42;;
73331;SDS011;61560;33.718;73.040;2023-05-07T09:26:32;5.97;;;2.20;;
73331;SDS011;61560;33.718;73.040;2023-05-07T09:29:02;7.00;;;1.90;;
73331;SDS011;61560;33.718;73.040;2023-05-07T09:31:28;5.88;;;1.90;;
73331;SDS011;61560;33.718;73.040;2023-05-07T09:33:55;3.78;;;2.17;;
73331;SDS011;61560;33.718;73.040;2023-05-07T09:36:23;5.63;;;2.45;;
73331;SDS011;61560;33.718;73.040;2023-05-07T09:38:51;5.50;;;2.53;;
73331;SDS011;61560;33.718;73.040;2023-05-07T09:41:26;7.53;;;2.80;;
73331;SDS011;61560;33.718;73.040;2023-05-07T09:44:06;6.05;;;2.33;;
73331;SDS011;61560;33.718;73.040;2023-05-07T09:49:19;4.18;;;2.35;;
73331;SDS011;61560;33.718;73.040;2023-05-07T09:51:52;5.97;;;1.73;;
73331;SDS011;61560;33.718;73.040;2023-05-07T09:54:22;5.30;;;2.33;;
73331;SDS011;61560;33.718;73.040;2023-05-07T09:56:52;5.22;;;1.85;;
73331;SDS011;61560;33.718;73.040;2023-05-07T09:59:22;4.45;;;2.08;;
73331;SDS011;61560;33.718;73.040;2023-05-07T10:01:50;5.88;;;2.17;;
73331;SDS011;61560;33.718;73.040;2023-05-07T10:04:18;3.75;;;2.35;;
73331;SDS011;61560;33.718;73.040;2023-05-07T10:06:46;4.75;;;2.47;;
73331;SDS011;61560;33.718;73.040;2023-05-07T10:09:16;7.32;;;2.20;;
73331;SDS011;61560;33.718;73.040;2023-05-07T10:11:44;5.32;;;2.40;;
73331;SDS011;61560;33.718;73.040;2023-05-07T10:14:12;6.13;;;2.47;;
73331;SDS011;61560;33.718;73.040;2023-05-07T10:16:41;4.47;;;2.50;;
73331;SDS011;61560;33.718;73.040;2023-05-07T10:19:12;3.75;;;2.05;;
73331;SDS011;61560;33.718;73.040;2023-05-07T10:21:44;2.80;;;1.80;;
73331;SDS011;61560;33.718;73.040;2023-05-07T10:24:31;4.63;;;2.38;;
73331;SDS011;61560;33.718;73.040;2023-05-07T10:27:10;4.65;;;1.90;;
73331;SDS011;61560;33.718;73.040;2023-05-07T10:29:45;4.25;;;1.90;;
73331;SDS011;61560;33.718;73.040;2023-05-07T10:35:29;9.70;;;2.03;;
73331;SDS011;61560;33.718;73.040;2023-05-07T10:37:58;9.30;;;2.40;;
73331;SDS011;61560;33.718;73.040;2023-05-07T10:40:27;4.05;;;2.15;;
73331;SDS011;61560;33.718;73.040;2023-05-07T10:42:58;5.65;;;2.33;;
73331;SDS011;61560;33.718;73.040;2023-05-07T10:45:29;4.75;;;1.80;;
73331;SDS011;61560;33.718;73.040;2023-05-07T10:48:05;4.03;;;2.03;;
73331;SDS011;61560;33.718;73.040;2023-05-07T10:50:46;4.68;;;2.30;;
73331;SDS011;61560;33.718;73.040;2023-05-07T10:55:47;5.90;;;2.13;;
73331;SDS011;61560;33.718;73.040;2023-05-07T10:58:26;3.92;;;2.10;;
73331;SDS011;61560;33.718;73.040;2023-05-07T11:01:11;9.85;;;2.97;;
73331;SDS011;61560;33.718;73.040;2023-05-07T11:12:50;10.18;;;2.38;;
73331;SDS011;61560;33.718;73.040;2023-05-07T11:15:33;7.57;;;2.53;;
73331;SDS011;61560;33.718;73.040;2023-05-07T11:26:42;6.30;;;2.47;;
73331;SDS011;61560;33.718;73.040;2023-05-07T11:29:21;5.03;;;2.28;;
73331;SDS011;61560;33.718;73.040;2023-05-07T11:31:57;7.63;;;3.08;;
73331;SDS011;61560;33.718;73.040;2023-05-07T11:34:30;9.18;;;2.80;;
73331;SDS011;61560;33.718;73.040;2023-05-07T11:36:59;11.32;;;2.60;;
73331;SDS011;61560;33.718;73.040;2023-05-07T11:39:46;11.07;;;2.67;;
73331;SDS011;61560;33.718;73.040;2023-05-07T11:42:27;7.22;;;2.90;;
73331;SDS011;61560;33.718;73.040;2023-05-07T11:47:22;5.22;;;2.38;;
73331;SDS011;61560;33.718;73.040;2023-05-07T11:49:54;7.18;;;2.50;;
73331;SDS011;61560;33.718;73.040;2023-05-07T11:52:22;4.63;;;2.30;;
73331;SDS011;61560;33.718;73.040;2023-05-07T11:54:54;8.77;;;2.40;;
73331;SDS011;61560;33.718;73.040;2023-05-07T11:57:25;8.80;;;2.50;;
73331;SDS011;61560;33.718;73.040;2023-05-07T11:59:54;6.82;;;2.50;;
73331;SDS011;61560;33.718;73.040;2023-05-07T12:02:21;5.53;;;2.53;;
73331;SDS011;61560;33.718;73.040;2023-05-07T12:04:53;10.38;;;2.92;;
73331;SDS011;61560;33.718;73.040;2023-05-07T12:07:24;8.93;;;2.35;;
73331;SDS011;61560;33.718;73.040;2023-05-07T12:09:51;8.25;;;2.78;;
73331;SDS011;61560;33.718;73.040;2023-05-07T12:12:18;6.65;;;2.53;;
73331;SDS011;61560;33.718;73.040;2023-05-07T12:14:45;8.75;;;2.63;;
73331;SDS011;61560;33.718;73.040;2023-05-07T12:17:12;7.10;;;2.55;;
73331;SDS011;61560;33.718;73.040;2023-05-07T12:19:41;7.88;;;2.45;;
73331;SDS011;61560;33.718;73.040;2023-05-07T12:22:09;4.78;;;2.10;;
73331;SDS011;61560;33.718;73.040;2023-05-07T12:24:46;11.32;;;3.08;;
73331;SDS011;61560;33.718;73.040;2023-05-07T12:27:27;3.72;;;2.40;;
73331;SDS011;61560;33.718;73.040;2023-05-07T12:29:53;6.18;;;2.25;;
73331;SDS011;61560;33.718;73.040;2023-05-07T12:32:20;6.75;;;2.58;;
73331;SDS011;61560;33.718;73.040;2023-05-07T12:34:50;12.38;;;2.47;;
73331;SDS011;61560;33.718;73.040;2023-05-07T12:37:23;5.97;;;2.22;;
73331;SDS011;61560;33.718;73.040;2023-05-07T12:40:05;6.53;;;2.80;;
73331;SDS011;61560;33.718;73.040;2023-05-07T12:42:37;5.03;;;2.65;;
73331;SDS011;61560;33.718;73.040;2023-05-07T12:45:07;9.30;;;2.75;;
73331;SDS011;61560;33.718;73.040;2023-05-07T12:47:38;6.20;;;2.50;;
73331;SDS011;61560;33.718;73.040;2023-05-07T12:50:05;7.15;;;2.45;;
73331;SDS011;61560;33.718;73.040;2023-05-07T12:52:33;10.48;;;2.58;;
73331;SDS011;61560;33.718;73.040;2023-05-07T12:55:06;6.32;;;2.70;;
73331;SDS011;61560;33.718;73.040;2023-05-07T12:57:47;5.47;;;2.80;;
73331;SDS011;61560;33.718;73.040;2023-05-07T13:00:16;7.90;;;2.83;;
73331;SDS011;61560;33.718;73.040;2023-05-07T13:02:43;7.15;;;3.33;;
73331;SDS011;61560;33.718;73.040;2023-05-07T13:05:11;11.93;;;3.50;;
73331;SDS011;61560;33.718;73.040;2023-05-07T13:07:39;10.55;;;3.53;;
73331;SDS011;61560;33.718;73.040;2023-05-07T13:10:06;11.70;;;3.63;;
73331;SDS011;61560;33.718;73.040;2023-05-07T13:12:33;8.00;;;3.08;;
73331;SDS011;61560;33.718;73.040;2023-05-07T13:15:00;8.30;;;3.35;;
73331;SDS011;61560;33.718;73.040;2023-05-07T13:17:27;9.40;;;4.10;;
73331;SDS011;61560;33.718;73.040;2023-05-07T13:19:55;9.70;;;3.33;;
73331;SDS011;61560;33.718;73.040;2023-05-07T13:22:21;7.47;;;3.22;;
73331;SDS011;61560;33.718;73.040;2023-05-07T13:24:48;11.32;;;4.28;;
73331;SDS011;61560;33.718;73.040;2023-05-07T13:27:17;10.07;;;2.97;;
73331;SDS011;61560;33.718;73.040;2023-05-07T13:29:45;4.35;;;2.85;;
73331;SDS011;61560;33.718;73.040;2023-05-07T13:32:11;8.45;;;3.00;;
73331;SDS011;61560;33.718;73.040;2023-05-07T13:34:38;8.85;;;2.80;;
73331;SDS011;61560;33.718;73.040;2023-05-07T13:37:04;11.57;;;2.90;;
73331;SDS011;61560;33.718;73.040;2023-05-07T13:39:33;6.93;;;2.80;;
73331;SDS011;61560;33.718;73.040;2023-05-07T13:41:59;6.80;;;2.70;;
73331;SDS011;61560;33.718;73.040;2023-05-07T13:44:26;12.20;;;3.67;;
73331;SDS011;61560;33.718;73.040;2023-05-07T13:46:52;12.50;;;3.58;;
73331;SDS011;61560;33.718;73.040;2023-05-07T13:49:19;18.23;;;4.82;;
73331;SDS011;61560;33.718;73.040;2023-05-07T13:51:46;17.52;;;3.83;;
73331;SDS011;61560;33.718;73.040;2023-05-07T13:54:13;11.15;;;4.15;;
73331;SDS011;61560;33.718;73.040;2023-05-07T13:56:39;13.77;;;3.90;;
73331;SDS011;61560;33.718;73.040;2023-05-07T13:59:06;11.38;;;3.38;;
73331;SDS011;61560;33.718;73.040;2023-05-07T14:01:33;8.95;;;3.35;;
73331;SDS011;61560;33.718;73.040;2023-05-07T14:04:00;13.60;;;3.83;;
73331;SDS011;61560;33.718;73.040;2023-05-07T14:06:27;10.30;;;3.50;;
73331;SDS011;61560;33.718;73.040;2023-05-07T14:08:53;7.53;;;3.88;;
73331;SDS011;61560;33.718;73.040;2023-05-07T14:11:20;12.00;;;3.10;;
73331;SDS011;61560;33.718;73.040;2023-05-07T14:13:47;6.32;;;2.97;;
73331;SDS011;61560;33.718;73.040;2023-05-07T14:16:13;18.63;;;4.25;;
73331;SDS011;61560;33.718;73.040;2023-05-07T14:18:40;10.20;;;3.10;;
73331;SDS011;61560;33.718;73.040;2023-05-07T14:21:06;8.90;;;4.43;;
73331;SDS011;61560;33.718;73.040;2023-05-07T14:23:35;5.63;;;3.10;;
73331;SDS011;61560;33.718;73.040;2023-05-07T14:26:02;9.77;;;3.45;;
73331;SDS011;61560;33.718;73.040;2023-05-07T14:28:29;8.73;;;3.28;;
73331;SDS011;61560;33.718;73.040;2023-05-07T14:30:55;11.23;;;3.25;;
73331;SDS011;61560;33.718;73.040;2023-05-07T14:33:47;5.20;;;2.80;;
73331;SDS011;61560;33.718;73.040;2023-05-07T14:36:16;6.80;;;3.10;;
73331;SDS011;61560;33.718;73.040;2023-05-07T14:38:48;5.13;;;2.80;;
73331;SDS011;61560;33.718;73.040;2023-05-07T14:41:16;9.18;;;3.05;;
73331;SDS011;61560;33.718;73.040;2023-05-07T14:43:42;5.40;;;2.95;;
73331;SDS011;61560;33.718;73.040;2023-05-07T14:46:16;8.43;;;2.92;;
73331;SDS011;61560;33.718;73.040;2023-05-07T14:48:46;6.72;;;3.08;;
73331;SDS011;61560;33.718;73.040;2023-05-07T14:51:13;5.28;;;2.70;;
73331;SDS011;61560;33.718;73.040;2023-05-07T14:53:41;6.35;;;2.78;;
73331;SDS011;61560;33.718;73.040;2023-05-07T14:56:11;3.67;;;2.38;;
73331;SDS011;61560;33.718;73.040;2023-05-07T14:58:37;5.90;;;2.65;;
73331;SDS011;61560;33.718;73.040;2023-05-07T15:01:04;6.80;;;2.55;;
73331;SDS011;61560;33.718;73.040;2023-05-07T15:03:31;11.75;;;2.85;;
73331;SDS011;61560;33.718;73.040;2023-05-07T15:05:57;9.60;;;2.70;;
73331;SDS011;61560;33.718;73.040;2023-05-07T15:08:27;9.73;;;2.88;;
73331;SDS011;61560;33.718;73.040;2023-05-07T15:10:54;6.20;;;2.78;;
73331;SDS011;61560;33.718;73.040;2023-05-07T15:13:21;7.60;;;3.00;;
73331;SDS011;61560;33.718;73.040;2023-05-07T15:15:48;7.93;;;3.20;;